createdAt,value
2022-12-29T00:02:17.088Z,60.81
2022-12-29T00:04:43.976Z,61.67
2022-12-29T00:07:11.204Z,61.56
2022-12-29T00:09:37.889Z,61.34
2022-12-29T00:12:05.604Z,61.61
2022-12-29T00:14:50.648Z,62.42
2022-12-29T00:17:17.335Z,62.04
2022-12-29T00:20:03.235Z,62.86
2022-12-29T00:22:48.812Z,63.36
2022-12-29T00:25:34.548Z,61.79
2022-12-29T00:28:19.896Z,63.12
2022-12-29T00:31:05.265Z,63.17
2022-12-29T00:33:52.544Z,63.94
2022-12-29T00:36:20.891Z,64.31
2022-12-29T00:39:29.671Z,64.81
2022-12-29T00:42:25.627Z,63.97
2022-12-29T00:44:52.366Z,63.14
2022-12-29T00:47:19.043Z,68.28
2022-12-29T00:49:45.798Z,67.90
2022-12-29T00:52:13.841Z,69.06
2022-12-29T00:54:41.949Z,68.92
2022-12-29T00:57:10.499Z,68.01
2022-12-29T00:59:41.600Z,68.89
2022-12-29T01:02:09.443Z,68.26
2022-12-29T01:04:37.164Z,67.34
2022-12-29T01:07:04.567Z,68.21
2022-12-29T01:09:50.890Z,68.16
2022-12-29T01:12:38.159Z,67.95
2022-12-29T01:15:05.474Z,68.57
2022-12-29T01:17:32.219Z,68.57
2022-12-29T01:19:58.927Z,68.77
2022-12-29T01:22:25.600Z,67.62
2022-12-29T01:24:52.260Z,67.58
2022-12-29T01:27:18.965Z,68.28
2022-12-29T01:29:45.722Z,68.34
2022-12-29T01:32:12.373Z,67.65
2022-12-29T01:34:39.061Z,67.74
2022-12-29T01:37:05.821Z,66.69
2022-12-29T01:39:32.839Z,67.33
2022-12-29T01:41:59.537Z,67.43
2022-12-29T01:44:51.545Z,66.50
2022-12-29T01:47:30.286Z,67.03
2022-12-29T01:49:59.942Z,66.45
2022-12-29T01:52:31.239Z,66.59
2022-12-29T01:55:00.128Z,66.21
2022-12-29T01:57:32.469Z,67.02
2022-12-29T02:00:10.271Z,66.92
2022-12-29T02:02:41.692Z,65.48
2022-12-29T02:05:16.391Z,66.20
2022-12-29T02:07:46.015Z,66.24
2022-12-29T02:10:13.737Z,65.23
2022-12-29T02:12:41.706Z,64.90
2022-12-29T02:15:09.267Z,65.39
2022-12-29T02:17:59.229Z,64.81
2022-12-29T02:20:28.944Z,64.74
2022-12-29T02:23:17.417Z,64.41
2022-12-29T02:26:03.578Z,63.94
2022-12-29T02:28:45.617Z,63.42
2022-12-29T02:31:36.061Z,63.52
2022-12-29T02:34:36.387Z,63.75
2022-12-29T02:37:03.013Z,63.89
2022-12-29T02:39:46.800Z,63.44
2022-12-29T02:42:31.868Z,63.89
2022-12-29T02:45:03.635Z,63.06
2022-12-29T02:47:39.196Z,62.91
2022-12-29T02:50:23.720Z,62.49
2022-12-29T02:53:07.427Z,62.14
2022-12-29T02:55:34.829Z,61.83
2022-12-29T02:58:18.426Z,61.64
2022-12-29T03:01:26.882Z,61.18
2022-12-29T03:04:05.744Z,60.82
2022-12-29T03:07:00.508Z,61.41
2022-12-29T03:09:37.501Z,60.92
2022-12-29T03:12:59.926Z,61.27
2022-12-29T03:15:55.577Z,61.05
2022-12-29T03:18:45.171Z,62.24
2022-12-29T03:21:55.702Z,60.47
2022-12-29T03:24:32.147Z,61.03
2022-12-29T03:27:03.142Z,61.68
2022-12-29T03:29:40.008Z,63.00
2022-12-29T03:32:09.969Z,61.57
2022-12-29T03:34:39.295Z,62.81
2022-12-29T03:37:11.205Z,62.04
2022-12-29T03:39:38.617Z,62.50
2022-12-29T03:42:16.179Z,62.29
2022-12-29T03:44:45.208Z,62.21
2022-12-29T03:47:15.504Z,61.21
2022-12-29T03:49:44.386Z,61.85
2022-12-29T03:52:12.049Z,61.84
2022-12-29T03:54:43.067Z,62.40
2022-12-29T03:57:11.441Z,61.83
2022-12-29T04:00:06.617Z,61.84
2022-12-29T04:02:42.828Z,61.88
2022-12-29T04:05:14.417Z,61.83
2022-12-29T04:07:41.134Z,61.86
2022-12-29T04:10:08.542Z,61.15
2022-12-29T04:12:35.921Z,60.32
2022-12-29T04:15:02.877Z,60.33
2022-12-29T04:17:29.841Z,61.13
2022-12-29T04:20:16.517Z,60.50
2022-12-29T04:22:43.518Z,60.60
2022-12-29T04:25:10.240Z,59.81
2022-12-29T04:27:37.544Z,59.97
2022-12-29T04:30:27.127Z,60.81
2022-12-29T04:33:04.428Z,60.71
2022-12-29T04:35:31.187Z,59.96
2022-12-29T04:37:57.839Z,60.66
2022-12-29T04:40:24.796Z,61.06
2022-12-29T04:42:51.581Z,60.28
2022-12-29T04:45:20.050Z,60.61
2022-12-29T04:47:59.064Z,61.31
2022-12-29T04:50:58.200Z,61.21
2022-12-29T04:53:26.202Z,60.90
2022-12-29T04:55:54.394Z,61.56
2022-12-29T04:58:23.270Z,63.23
2022-12-29T05:00:52.297Z,61.79
2022-12-29T05:03:21.644Z,62.42
2022-12-29T05:05:49.141Z,62.86
2022-12-29T05:08:16.058Z,61.38
2022-12-29T05:10:46.498Z,61.38
2022-12-29T05:13:13.678Z,61.59
2022-12-29T05:15:48.670Z,61.30
2022-12-29T05:18:15.452Z,61.49
2022-12-29T05:20:42.718Z,60.90
2022-12-29T05:23:09.640Z,60.69
2022-12-29T05:25:36.419Z,60.96
2022-12-29T05:28:29.996Z,60.71
2022-12-29T05:31:05.938Z,59.75
2022-12-29T05:33:32.832Z,59.81
2022-12-29T05:36:08.193Z,59.92
2022-12-29T05:38:36.421Z,59.55
2022-12-29T05:41:03.212Z,58.72
2022-12-29T05:43:50.147Z,58.88
2022-12-29T05:46:28.941Z,59.75
2022-12-29T05:49:08.297Z,58.49
2022-12-29T05:51:53.397Z,57.93
2022-12-29T05:54:20.124Z,57.46
2022-12-29T05:56:46.980Z,58.38
2022-12-29T05:59:13.776Z,57.37
2022-12-29T06:01:40.858Z,57.37
2022-12-29T06:04:08.078Z,56.81
2022-12-29T06:06:35.329Z,56.79
2022-12-29T06:09:03.175Z,57.07
2022-12-29T06:11:29.904Z,57.50
2022-12-29T06:13:59.106Z,56.40
2022-12-29T06:16:25.854Z,56.61
2022-12-29T06:18:55.812Z,56.01
2022-12-29T06:21:22.636Z,56.57
2022-12-29T06:23:49.332Z,55.61
2022-12-29T06:26:17.205Z,56.31
2022-12-29T06:28:44.349Z,56.86
2022-12-29T06:31:12.072Z,56.65
2022-12-29T06:33:39.382Z,56.45
2022-12-29T06:36:06.608Z,56.34
2022-12-29T06:38:33.886Z,56.77
2022-12-29T06:41:00.652Z,57.51
2022-12-29T06:43:45.906Z,57.96
2022-12-29T06:46:29.526Z,58.09
2022-12-29T06:48:56.243Z,57.85
2022-12-29T06:51:22.871Z,57.25
2022-12-29T06:53:49.634Z,56.91
2022-12-29T06:56:16.400Z,56.86
2022-12-29T06:58:43.055Z,57.27
2022-12-29T07:01:09.767Z,57.26
2022-12-29T07:03:36.608Z,57.84
2022-12-29T07:06:04.143Z,57.73
2022-12-29T07:08:30.843Z,57.57
2022-12-29T07:10:57.455Z,57.12
2022-12-29T07:13:24.205Z,57.03
2022-12-29T07:15:50.928Z,58.18
2022-12-29T07:18:17.663Z,58.98
2022-12-29T07:20:44.419Z,58.83
2022-12-29T07:23:11.167Z,58.22
2022-12-29T07:25:37.887Z,60.44
2022-12-29T07:28:04.911Z,60.22
2022-12-29T07:30:31.606Z,60.57
2022-12-29T07:32:58.339Z,61.04
2022-12-29T07:35:25.067Z,60.79
2022-12-29T07:37:51.809Z,61.53
2022-12-29T07:40:18.491Z,60.67
2022-12-29T07:42:45.210Z,60.83
2022-12-29T07:45:13.080Z,60.29
2022-12-29T07:47:53.771Z,60.91
2022-12-29T07:50:20.459Z,60.77
2022-12-29T07:52:48.778Z,61.06
2022-12-29T07:55:16.974Z,60.72
2022-12-29T07:57:43.909Z,60.18
2022-12-29T08:00:11.319Z,59.78
2022-12-29T08:02:40.731Z,59.91
2022-12-29T08:05:07.757Z,60.76
2022-12-29T08:07:34.418Z,61.16
2022-12-29T08:10:02.374Z,61.75
2022-12-29T08:12:29.432Z,62.50
2022-12-29T08:14:56.194Z,61.43
2022-12-29T08:17:22.887Z,61.78
2022-12-29T08:19:49.803Z,61.15
2022-12-29T08:22:16.768Z,62.17
2022-12-29T08:24:43.542Z,61.74
2022-12-29T08:27:18.025Z,62.23
2022-12-29T08:29:46.958Z,62.48
2022-12-29T08:32:13.938Z,61.74
2022-12-29T08:34:40.851Z,62.09
2022-12-29T08:37:07.554Z,60.85
2022-12-29T08:39:34.796Z,61.96
2022-12-29T08:42:01.630Z,62.27
2022-12-29T08:44:28.338Z,63.87
2022-12-29T08:46:55.065Z,63.19
2022-12-29T08:49:22.026Z,62.72
2022-12-29T08:51:48.688Z,62.24
2022-12-29T08:54:15.288Z,62.33
2022-12-29T08:56:41.960Z,61.54
2022-12-29T08:59:09.005Z,63.03
2022-12-29T09:01:37.398Z,63.44
2022-12-29T09:04:14.821Z,63.60
2022-12-29T09:06:42.066Z,63.97
2022-12-29T09:09:08.762Z,62.29
2022-12-29T09:11:35.536Z,61.66
2022-12-29T09:14:02.191Z,62.44
2022-12-29T09:16:29.059Z,62.00
2022-12-29T09:18:55.807Z,60.86
2022-12-29T09:21:22.562Z,61.11
2022-12-29T09:23:49.403Z,60.51
2022-12-29T09:26:16.070Z,60.62
2022-12-29T09:28:43.183Z,62.69
2022-12-29T09:31:09.924Z,65.07
2022-12-29T09:33:36.940Z,65.35
2022-12-29T09:36:04.168Z,64.40
2022-12-29T09:38:31.615Z,63.99
2022-12-29T09:41:16.733Z,64.25
2022-12-29T09:44:07.995Z,63.09
2022-12-29T09:46:42.980Z,62.95
2022-12-29T09:49:42.069Z,64.61
2022-12-29T09:52:15.797Z,64.34
2022-12-29T09:55:02.842Z,65.58
2022-12-29T09:57:48.017Z,65.98
2022-12-29T10:00:18.274Z,65.78
2022-12-29T10:02:51.075Z,64.91
2022-12-29T10:05:42.015Z,65.85
2022-12-29T10:08:27.169Z,65.49
2022-12-29T10:11:26.152Z,65.52
2022-12-29T10:14:25.108Z,66.39
2022-12-29T10:17:13.576Z,65.75
2022-12-29T10:19:49.370Z,66.56
2022-12-29T10:22:19.034Z,65.95
2022-12-29T10:24:49.667Z,65.50
2022-12-29T10:27:17.821Z,66.53
2022-12-29T10:29:50.351Z,66.00
2022-12-29T10:32:24.066Z,65.50
2022-12-29T10:34:56.271Z,65.76
2022-12-29T10:37:39.829Z,65.90
2022-12-29T10:40:33.987Z,65.73
2022-12-29T10:43:01.893Z,64.81
2022-12-29T10:45:33.608Z,64.08
2022-12-29T10:48:10.269Z,63.62
2022-12-29T10:50:43.724Z,62.90
2022-12-29T10:53:22.838Z,62.67
2022-12-29T10:55:50.986Z,62.35
2022-12-29T10:58:18.493Z,63.34
2022-12-29T11:00:52.830Z,63.68
2022-12-29T11:03:25.427Z,62.15
2022-12-29T11:06:02.380Z,62.14
2022-12-29T11:08:36.356Z,61.62
2022-12-29T11:11:06.118Z,61.02
2022-12-29T11:13:39.212Z,60.80
2022-12-29T11:16:06.619Z,60.15
2022-12-29T11:18:40.789Z,59.90
2022-12-29T11:21:26.704Z,59.43
2022-12-29T11:24:05.348Z,58.91
2022-12-29T11:26:34.783Z,59.50
2022-12-29T11:29:17.104Z,58.88
2022-12-29T11:31:47.571Z,59.63
2022-12-29T11:34:34.096Z,60.05
2022-12-29T11:37:13.046Z,59.83
2022-12-29T11:39:51.924Z,60.46
2022-12-29T11:42:23.226Z,59.65
2022-12-29T11:44:52.250Z,59.38
2022-12-29T11:47:31.923Z,59.02
2022-12-29T11:50:02.772Z,60.13
2022-12-29T11:52:34.171Z,60.03
2022-12-29T11:55:03.171Z,59.45
2022-12-29T11:57:31.121Z,58.80
2022-12-29T12:00:00.834Z,58.43
2022-12-29T12:02:38.763Z,58.54
2022-12-29T12:05:29.138Z,56.91
2022-12-29T12:08:20.484Z,55.90
2022-12-29T12:10:57.539Z,55.97
2022-12-29T12:13:34.415Z,55.11
2022-12-29T12:16:14.157Z,55.05
2022-12-29T12:19:03.688Z,54.95
2022-12-29T12:21:44.849Z,54.45
2022-12-29T12:24:30.571Z,54.20
2022-12-29T12:27:16.240Z,53.88
2022-12-29T12:30:01.637Z,53.85
2022-12-29T12:32:44.241Z,54.37
2022-12-29T12:35:21.815Z,53.65
2022-12-29T12:38:04.676Z,54.49
2022-12-29T12:41:00.199Z,54.23
2022-12-29T12:43:42.375Z,52.87
2022-12-29T12:46:31.376Z,53.66
2022-12-29T12:49:35.824Z,53.71
2022-12-29T12:52:11.853Z,53.95
2022-12-29T12:54:53.695Z,53.86
2022-12-29T12:57:32.816Z,54.72
2022-12-29T13:00:09.904Z,53.84
2022-12-29T13:03:11.543Z,54.08
2022-12-29T13:05:58.993Z,54.64
2022-12-29T13:08:46.744Z,55.28
2022-12-29T13:11:44.224Z,55.22
2022-12-29T13:14:35.488Z,55.61
2022-12-29T13:17:12.693Z,56.36
2022-12-29T13:19:39.339Z,55.58
2022-12-29T13:22:14.695Z,55.90
2022-12-29T13:25:03.347Z,55.37
2022-12-29T13:28:21.876Z,56.08
2022-12-29T13:31:06.422Z,55.14
2022-12-29T13:33:56.856Z,55.27
2022-12-29T13:36:45.488Z,54.85
2022-12-29T13:39:21.523Z,55.30
2022-12-29T13:41:52.252Z,54.57
2022-12-29T13:44:26.393Z,54.61
2022-12-29T13:46:55.710Z,54.46
2022-12-29T13:49:25.443Z,54.06
2022-12-29T13:51:58.806Z,53.81
2022-12-29T13:54:57.417Z,52.33
2022-12-29T13:57:38.570Z,52.59
2022-12-29T14:00:19.000Z,52.33
2022-12-29T14:02:45.872Z,52.16
2022-12-29T14:05:18.762Z,52.14
2022-12-29T14:07:46.158Z,52.37
2022-12-29T14:10:37.084Z,51.80
2022-12-29T14:13:26.008Z,51.54
2022-12-29T14:15:55.758Z,51.12
2022-12-29T14:18:25.483Z,51.00
2022-12-29T14:21:10.177Z,50.54
2022-12-29T14:23:40.974Z,50.72
2022-12-29T14:26:07.610Z,50.53
2022-12-29T14:28:39.957Z,50.30
2022-12-29T14:31:15.954Z,50.68
2022-12-29T14:34:09.538Z,50.17
2022-12-29T14:36:37.553Z,50.49
2022-12-29T14:39:06.133Z,50.52
2022-12-29T14:41:40.108Z,51.25
2022-12-29T14:44:19.570Z,50.96
2022-12-29T14:46:55.336Z,51.45
2022-12-29T14:49:25.804Z,51.56
2022-12-29T14:51:55.888Z,51.86
2022-12-29T14:54:34.502Z,52.27
2022-12-29T14:57:04.714Z,51.74
2022-12-29T14:59:34.884Z,52.25
2022-12-29T15:02:05.833Z,52.09
2022-12-29T15:04:36.412Z,52.15
2022-12-29T15:07:08.148Z,52.81
2022-12-29T15:09:39.669Z,52.58
2022-12-29T15:12:43.094Z,52.71
2022-12-29T15:15:32.046Z,52.68
2022-12-29T15:18:14.356Z,52.98
2022-12-29T15:20:43.244Z,53.54
2022-12-29T15:23:15.879Z,53.95
2022-12-29T15:25:55.237Z,54.20
2022-12-29T15:28:23.153Z,53.77
2022-12-29T15:31:06.531Z,53.70
2022-12-29T15:33:44.023Z,53.78
2022-12-29T15:36:13.760Z,53.69
2022-12-29T15:38:40.990Z,54.07
2022-12-29T15:41:23.477Z,54.04
2022-12-29T15:44:01.435Z,54.10
2022-12-29T15:46:31.990Z,53.92
2022-12-29T15:48:59.187Z,53.85
2022-12-29T15:51:35.892Z,54.09
2022-12-29T15:54:03.372Z,54.76
2022-12-29T15:56:32.083Z,55.12
2022-12-29T15:59:00.169Z,54.36
2022-12-29T16:01:33.345Z,55.66
2022-12-29T16:04:03.740Z,54.99
2022-12-29T16:06:39.224Z,54.74
2022-12-29T16:09:36.175Z,54.64
2022-12-29T16:12:09.235Z,54.85
2022-12-29T16:14:45.408Z,54.68
2022-12-29T16:17:21.777Z,55.22
2022-12-29T16:19:53.720Z,55.29
2022-12-29T16:22:37.463Z,55.61
2022-12-29T16:25:26.169Z,56.48
2022-12-29T16:27:53.488Z,56.94
2022-12-29T16:30:32.830Z,57.60
2022-12-29T16:33:04.058Z,57.41
2022-12-29T16:35:45.777Z,58.62
2022-12-29T16:38:23.705Z,58.66
2022-12-29T16:41:03.216Z,58.18
2022-12-29T16:43:35.611Z,59.33
2022-12-29T16:46:02.282Z,60.23
2022-12-29T16:48:36.487Z,60.11
2022-12-29T16:51:07.074Z,60.32
2022-12-29T16:53:38.041Z,59.96
2022-12-29T16:56:17.392Z,59.61
2022-12-29T16:58:54.544Z,59.43
2022-12-29T17:01:21.607Z,59.10
2022-12-29T17:03:54.797Z,59.69
2022-12-29T17:06:23.363Z,60.20
2022-12-29T17:08:51.430Z,60.78
2022-12-29T17:11:49.242Z,60.20
2022-12-29T17:14:43.144Z,60.38
2022-12-29T17:17:19.724Z,61.07
2022-12-29T17:19:51.677Z,61.43
2022-12-29T17:22:26.046Z,60.43
2022-12-29T17:24:58.248Z,61.53
2022-12-29T17:27:34.312Z,61.03
2022-12-29T17:30:11.901Z,61.26
2022-12-29T17:32:40.357Z,61.76
2022-12-29T17:35:14.844Z,62.81
2022-12-29T17:37:43.828Z,62.43
2022-12-29T17:40:16.104Z,63.33
2022-12-29T17:42:46.086Z,62.51
2022-12-29T17:45:17.231Z,61.63
2022-12-29T17:47:44.494Z,62.54
2022-12-29T17:50:16.979Z,62.95
2022-12-29T17:53:00.699Z,62.29
2022-12-29T17:55:37.234Z,62.30
2022-12-29T17:58:19.991Z,62.62
2022-12-29T18:00:48.922Z,63.29
2022-12-29T18:03:17.890Z,63.06
2022-12-29T18:05:45.415Z,62.42
2022-12-29T18:08:12.527Z,62.33
2022-12-29T18:10:40.003Z,63.28
2022-12-29T18:13:07.421Z,62.52
2022-12-29T18:15:36.565Z,63.75
2022-12-29T18:18:13.194Z,62.85
2022-12-29T18:20:41.473Z,62.99
2022-12-29T18:23:27.491Z,63.98
2022-12-29T18:25:59.312Z,64.48
2022-12-29T18:28:26.984Z,63.32
2022-12-29T18:30:55.979Z,63.17
2022-12-29T18:33:26.225Z,63.46
2022-12-29T18:36:02.980Z,62.86
2022-12-29T18:38:30.347Z,62.12
2022-12-29T18:40:58.779Z,62.33
2022-12-29T18:43:26.146Z,62.03
2022-12-29T18:45:53.520Z,63.21
2022-12-29T18:48:21.040Z,62.32
2022-12-29T18:50:53.316Z,61.09
2022-12-29T18:53:23.312Z,61.76
2022-12-29T18:55:51.207Z,62.41
2022-12-29T18:58:18.255Z,62.72
2022-12-29T19:00:46.649Z,61.64
2022-12-29T19:03:15.717Z,62.12
2022-12-29T19:05:44.295Z,61.68
2022-12-29T19:08:12.755Z,62.00
2022-12-29T19:10:41.902Z,61.45
2022-12-29T19:13:17.450Z,62.40
2022-12-29T19:15:46.626Z,63.07
2022-12-29T19:21:08.216Z,63.12
2022-12-29T19:23:35.310Z,63.30
2022-12-29T19:26:02.465Z,62.12
2022-12-29T19:28:29.281Z,62.99
2022-12-29T19:31:00.008Z,62.30
2022-12-29T19:33:28.149Z,62.26
2022-12-29T19:36:00.020Z,62.24
2022-12-29T19:38:26.790Z,61.96
2022-12-29T19:40:53.595Z,63.25
2022-12-29T19:43:20.637Z,62.80
2022-12-29T19:45:47.386Z,61.65
2022-12-29T19:48:16.442Z,61.46
2022-12-29T19:50:44.073Z,61.16
2022-12-29T19:53:11.901Z,61.70
2022-12-29T19:55:43.247Z,62.52
2022-12-29T19:58:10.243Z,62.05
2022-12-29T20:00:39.981Z,61.09
2022-12-29T20:03:07.066Z,61.83
2022-12-29T20:05:33.952Z,61.27
2022-12-29T20:08:00.612Z,61.29
2022-12-29T20:10:27.680Z,61.12
2022-12-29T20:12:54.358Z,60.86
2022-12-29T20:15:21.132Z,61.30
2022-12-29T20:18:15.445Z,62.06
2022-12-29T20:20:34.710Z,61.65
2022-12-29T20:23:01.385Z,61.10
2022-12-29T20:25:46.612Z,62.42
2022-12-29T20:28:15.803Z,62.08
2022-12-29T20:30:43.038Z,61.03
2022-12-29T20:33:10.038Z,61.69
2022-12-29T20:35:37.303Z,61.12
2022-12-29T20:38:05.282Z,60.86
2022-12-29T20:40:32.100Z,60.20
2022-12-29T20:42:58.888Z,61.14
2022-12-29T20:45:25.778Z,60.93
2022-12-29T20:47:52.598Z,60.81
2022-12-29T20:50:19.278Z,61.07
2022-12-29T20:52:46.847Z,60.89
2022-12-29T20:55:14.431Z,60.43
2022-12-29T21:00:30.363Z,60.99
2022-12-29T21:03:01.091Z,60.50
2022-12-29T21:05:28.705Z,60.57
2022-12-29T21:07:56.068Z,60.62
2022-12-29T21:10:22.810Z,61.42
2022-12-29T21:12:49.826Z,61.10
2022-12-29T21:15:16.665Z,61.62
2022-12-29T21:17:44.270Z,62.08
2022-12-29T21:20:19.820Z,62.35
2022-12-29T21:22:47.837Z,62.14
2022-12-29T21:25:14.893Z,63.22
2022-12-29T21:27:44.654Z,61.97
2022-12-29T21:30:12.520Z,61.54
2022-12-29T21:32:40.462Z,62.27
2022-12-29T21:35:08.895Z,62.28
2022-12-29T21:37:36.102Z,62.46
2022-12-29T21:40:04.532Z,62.26
2022-12-29T21:42:31.563Z,61.96
2022-12-29T21:45:20.498Z,63.20
2022-12-29T21:48:07.095Z,63.23
2022-12-29T21:50:36.648Z,63.04
2022-12-29T21:53:03.299Z,62.72
2022-12-29T21:55:29.947Z,61.95
2022-12-29T21:58:14.921Z,63.17
2022-12-29T22:01:00.323Z,62.67
2022-12-29T22:03:45.559Z,62.40
2022-12-29T22:06:30.915Z,61.99
2022-12-29T22:09:16.159Z,62.22
2022-12-29T22:12:01.359Z,62.62
2022-12-29T22:14:28.183Z,62.43
2022-12-29T22:16:54.854Z,63.08
2022-12-29T22:19:21.583Z,63.09
2022-12-29T22:21:48.205Z,62.81
2022-12-29T22:24:14.917Z,62.76
2022-12-29T22:26:41.578Z,63.03
2022-12-29T22:29:08.254Z,63.14
2022-12-29T22:31:35.078Z,63.19
2022-12-29T22:34:04.039Z,62.41
2022-12-29T22:36:32.120Z,62.74
2022-12-29T22:38:58.919Z,62.57
2022-12-29T22:41:25.580Z,62.16
2022-12-29T22:43:52.412Z,62.17
2022-12-29T22:46:19.295Z,62.78
2022-12-29T22:48:46.291Z,63.73
2022-12-29T22:51:13.841Z,62.61
2022-12-29T22:53:41.220Z,62.67
2022-12-29T22:56:11.084Z,62.89
2022-12-29T22:58:42.464Z,62.80
2022-12-29T23:01:10.950Z,63.38
2022-12-29T23:03:38.337Z,63.30
2022-12-29T23:06:07.107Z,64.01
2022-12-29T23:08:36.450Z,64.05
2022-12-29T23:11:05.091Z,63.88
2022-12-29T23:13:32.266Z,64.05
2022-12-29T23:15:59.164Z,64.64
2022-12-29T23:18:26.779Z,64.37
2022-12-29T23:20:53.509Z,64.79
2022-12-29T23:23:46.405Z,64.54
2022-12-29T23:26:16.015Z,65.21
2022-12-29T23:28:42.792Z,64.34
2022-12-29T23:31:09.902Z,65.10
2022-12-29T23:33:36.885Z,64.68
2022-12-29T23:36:04.269Z,64.19
2022-12-29T23:38:31.073Z,64.28
2022-12-29T23:40:57.869Z,64.47
2022-12-29T23:43:24.647Z,64.42
2022-12-29T23:45:51.585Z,64.14
2022-12-29T23:48:19.042Z,64.29
2022-12-29T23:50:46.022Z,63.97
2022-12-29T23:53:12.751Z,63.39
2022-12-29T23:55:43.349Z,63.18
2022-12-29T23:58:10.749Z,62.94
